Time;durP1;ratioP1;P1;durP2;ratioP2;P2;SDS_P1;SDS_P2;PMS_P1;PMS_P2;Temp;Humidity;BMP_temperature;BMP_pressure;BME280_temperature;BME280_humidity;BME280_pressure;Samples;Min_cycle;Max_cycle;Signal;HPM_P1;HPM_P2
2022/10/31 00:01:17;;;;;;;4.23;1.40;;;26.50;44.80;;;;;;5058020;28;20172;-72
2022/10/31 00:03:45;;;;;;;2.13;1.13;;;26.80;43.70;;;;;;5053859;28;20172;-73
2022/10/31 00:06:13;;;;;;;6.53;1.30;;;26.50;44.50;;;;;;5047224;28;20181;-73
2022/10/31 00:08:40;;;;;;;3.77;1.20;;;26.30;45.00;;;;;;5052250;28;20177;-72
2022/10/31 00:11:11;;;;;;;3.27;1.00;;;26.30;45.10;;;;;;5048872;28;20211;-70
2022/10/31 00:13:39;;;;;;;5.13;1.00;;;26.30;44.80;;;;;;5068653;28;20191;-68
2022/10/31 00:16:13;;;;;;;3.83;0.80;;;26.50;44.50;;;;;;5052760;28;20178;-73
2022/10/31 00:18:40;;;;;;;2.17;1.07;;;26.40;45.00;;;;;;5054016;28;20180;-73
2022/10/31 00:21:08;;;;;;;5.80;1.20;;;26.70;44.80;;;;;;5041850;28;20212;-71
2022/10/31 00:23:35;;;;;;;2.80;0.87;;;26.60;44.90;;;;;;5039350;28;20673;-73
2022/10/31 00:26:04;;;;;;;3.80;0.90;;;26.60;44.60;;;;;;5044896;28;20523;-73
2022/10/31 00:28:32;;;;;;;2.27;0.90;;;26.60;45.00;;;;;;5053528;28;20190;-72
2022/10/31 00:31:04;;;;;;;7.30;1.00;;;26.40;44.80;;;;;;5053153;28;20215;-72
2022/10/31 00:33:33;;;;;;;4.27;0.93;;;26.40;45.30;;;;;;5052735;28;20190;-72
2022/10/31 00:36:02;;;;;;;10.53;1.50;;;26.30;45.30;;;;;;5052102;28;20184;-72
2022/10/31 00:38:30;;;;;;;4.13;1.23;;;26.40;46.10;;;;;;5053407;28;20583;-72
2022/10/31 00:40:57;;;;;;;6.63;1.13;;;26.40;47.40;;;;;;5049955;28;20203;-72
2022/10/31 00:43:25;;;;;;;7.57;1.57;;;26.40;48.30;;;;;;5047300;28;20240;-72
2022/10/31 00:45:52;;;;;;;7.73;1.50;;;26.50;48.40;;;;;;5038072;28;20176;-73
2022/10/31 00:48:19;;;;;;;6.50;1.60;;;26.60;48.90;;;;;;5053660;28;20183;-71
2022/10/31 00:50:47;;;;;;;4.23;1.87;;;26.50;49.50;;;;;;5053360;28;20215;-73
2022/10/31 00:53:14;;;;;;;9.23;2.10;;;26.50;50.40;;;;;;5052840;28;20278;-72
2022/10/31 00:55:41;;;;;;;10.90;2.30;;;26.40;52.50;;;;;;5052949;28;20164;-72
2022/10/31 00:58:09;;;;;;;11.73;2.57;;;26.40;52.60;;;;;;5049674;28;20191;-73
2022/10/31 01:00:39;;;;;;;8.93;2.30;;;26.10;53.90;;;;;;5053251;28;20531;-73
2022/10/31 01:03:06;;;;;;;11.13;2.87;;;26.20;54.50;;;;;;5053352;28;20187;-72
2022/10/31 01:05:34;;;;;;;14.50;2.50;;;26.00;54.80;;;;;;5052567;28;20259;-73
2022/10/31 01:08:01;;;;;;;14.17;2.37;;;26.30;53.80;;;;;;5052921;28;20203;-72
2022/10/31 01:10:29;;;;;;;11.03;2.70;;;26.70;50.50;;;;;;5052523;28;20206;-72
2022/10/31 01:12:56;;;;;;;11.87;2.90;;;26.90;52.50;;;;;;5052311;28;20180;-72
2022/10/31 01:15:24;;;;;;;10.70;2.40;;;27.10;52.50;;;;;;5047026;28;20183;-71
2022/10/31 01:17:51;;;;;;;12.07;3.07;;;27.00;51.50;;;;;;5052069;28;20187;-73
2022/10/31 01:20:19;;;;;;;7.70;2.57;;;27.60;51.60;;;;;;5054607;28;20188;-74
2022/10/31 01:22:46;;;;;;;3.43;1.33;;;27.70;50.60;;;;;;5054379;28;20266;-72
2022/10/31 01:25:14;;;;;;;8.80;2.03;;;28.30;46.40;;;;;;5052714;28;20233;-73
2022/10/31 01:27:41;;;;;;;3.80;0.97;;;28.40;46.90;;;;;;5052904;28;20608;-75
2022/10/31 01:30:09;;;;;;;0.80;0.70;;;28.90;43.40;;;;;;5050380;28;20267;-73
2022/10/31 01:32:36;;;;;;;6.17;0.70;;;29.00;42.60;;;;;;5048721;28;20616;-71
2022/10/31 01:35:04;;;;;;;6.10;0.97;;;28.90;43.00;;;;;;5052886;28;20179;-71
2022/10/31 01:37:32;;;;;;;5.67;0.70;;;28.70;43.00;;;;;;5052806;28;20188;-72
2022/10/31 01:39:59;;;;;;;2.33;1.00;;;28.50;43.50;;;;;;5052557;28;20180;-71
2022/10/31 01:42:26;;;;;;;1.30;0.87;;;28.40;44.20;;;;;;5067911;28;20191;-71
2022/10/31 01:45:00;;;;;;;3.70;0.70;;;28.30;44.20;;;;;;5052477;28;20254;-71
2022/10/31 01:47:43;;;;;;;1.20;0.77;;;28.30;44.50;;;;;;5033579;28;20701;-70
2022/10/31 01:50:44;;;;;;;2.83;1.10;;;28.20;45.00;;;;;;5052426;28;20228;-72
2022/10/31 01:53:12;;;;;;;4.73;1.00;;;28.30;44.90;;;;;;5019947;28;20211;-74
2022/10/31 01:55:46;;;;;;;2.90;1.07;;;28.40;45.00;;;;;;5035669;28;20231;-73
2022/10/31 01:58:28;;;;;;;2.53;1.13;;;28.40;45.00;;;;;;5044935;28;20180;-70
2022/10/31 02:00:59;;;;;;;3.23;1.17;;;28.40;45.40;;;;;;5047210;28;20630;-74
2022/10/31 02:03:27;;;;;;;5.17;1.07;;;28.40;45.90;;;;;;5034497;28;20590;-72
2022/10/31 02:05:56;;;;;;;3.83;0.87;;;28.60;46.10;;;;;;5051583;28;20218;-72
2022/10/31 02:08:32;;;;;;;4.53;1.43;;;28.80;45.90;;;;;;5052330;28;20211;-72
2022/10/31 02:11:01;;;;;;;4.93;0.93;;;29.00;45.20;;;;;;5035914;28;20211;-73
2022/10/31 02:13:30;;;;;;;4.00;0.80;;;28.90;43.10;;;;;;5053825;28;20666;-71
2022/10/31 02:15:59;;;;;;;6.57;0.70;;;28.80;39.00;;;;;;5052159;28;20176;-74
2022/10/31 02:18:29;;;;;;;1.57;0.50;;;28.50;39.60;;;;;;5052243;28;20164;-72
2022/10/31 02:21:09;;;;;;;5.93;0.70;;;28.30;40.60;;;;;;5051443;28;20557;-70
2022/10/31 02:24:08;;;;;;;1.47;0.50;;;28.00;41.60;;;;;;5033268;28;20317;-71
2022/10/31 02:27:04;;;;;;;4.27;0.60;;;27.70;43.40;;;;;;5052148;28;20238;-72
2022/10/31 02:29:40;;;;;;;3.43;0.70;;;27.40;44.10;;;;;;5032815;28;20193;-73
2022/10/31 02:32:28;;;;;;;4.00;0.87;;;27.30;45.20;;;;;;5052127;28;20227;-72
2022/10/31 02:35:10;;;;;;;6.30;0.50;;;27.20;47.00;;;;;;5032167;28;20184;-72
2022/10/31 02:37:49;;;;;;;8.13;0.80;;;27.10;48.40;;;;;;5047461;28;20180;-70
2022/10/31 02:40:24;;;;;;;4.77;0.60;;;26.80;50.60;;;;;;5033547;28;20614;-73
2022/10/31 02:43:09;;;;;;;1.67;0.60;;;26.60;52.30;;;;;;5050697;28;20534;-71
2022/10/31 02:45:49;;;;;;;2.60;0.70;;;26.50;52.80;;;;;;5050570;28;20277;-72
2022/10/31 02:48:24;;;;;;;2.17;0.63;;;26.50;52.50;;;;;;5051786;28;20188;-70
2022/10/31 02:51:02;;;;;;;2.83;0.70;;;26.40;53.50;;;;;;5051658;28;20199;-72
2022/10/31 02:53:37;;;;;;;0.97;0.50;;;26.30;53.30;;;;;;5051767;28;20179;-73
2022/10/31 02:56:18;;;;;;;5.60;0.80;;;26.10;53.40;;;;;;5050355;28;20179;-71
2022/10/31 02:59:00;;;;;;;0.50;0.43;;;26.00;54.60;;;;;;5051758;28;20303;-75
2022/10/31 03:01:48;;;;;;;1.33;0.63;;;26.00;54.10;;;;;;5051622;28;20265;-72
2022/10/31 03:04:55;;;;;;;0.77;0.60;;;26.00;54.70;;;;;;5051934;28;20184;-74
2022/10/31 03:07:49;;;;;;;1.43;0.60;;;25.90;56.10;;;;;;5051488;28;20229;-71
2022/10/31 03:10:38;;;;;;;1.97;0.60;;;25.80;57.40;;;;;;5043293;28;20212;-73
2022/10/31 03:13:30;;;;;;;1.17;0.70;;;25.70;57.20;;;;;;5048318;28;20176;-75
2022/10/31 03:16:04;;;;;;;0.77;0.70;;;25.60;58.40;;;;;;5051683;28;20218;-73
2022/10/31 03:18:34;;;;;;;1.17;0.77;;;25.60;59.30;;;;;;5050548;28;20175;-72
2022/10/31 03:21:05;;;;;;;2.30;0.80;;;25.50;59.40;;;;;;5067101;28;20180;-71
2022/10/31 03:23:35;;;;;;;1.67;0.90;;;25.40;59.00;;;;;;5051468;28;20187;-73
2022/10/31 03:26:06;;;;;;;0.80;0.70;;;25.60;59.30;;;;;;5050865;28;20249;-72
2022/10/31 03:28:56;;;;;;;2.23;0.60;;;25.80;58.50;;;;;;5054503;28;20172;-74
2022/10/31 03:31:29;;;;;;;1.07;0.70;;;25.90;58.10;;;;;;5029485;28;20252;-72
2022/10/31 03:34:01;;;;;;;3.97;0.80;;;26.10;58.00;;;;;;5055104;28;20852;-73
2022/10/31 03:36:34;;;;;;;1.53;0.80;;;26.10;57.80;;;;;;5080114;28;20215;-77
2022/10/31 03:39:06;;;;;;;1.60;0.83;;;26.20;57.40;;;;;;5055214;28;20554;-74
2022/10/31 03:41:40;;;;;;;2.50;0.80;;;26.20;58.10;;;;;;5054771;28;20233;-73
2022/10/31 03:44:16;;;;;;;4.73;0.97;;;26.00;58.30;;;;;;5054815;28;20307;-75
2022/10/31 03:46:44;;;;;;;3.60;0.87;;;26.00;58.70;;;;;;5053784;28;20179;-72
2022/10/31 03:49:12;;;;;;;1.27;0.70;;;25.90;57.90;;;;;;5054552;28;20259;-72
2022/10/31 03:51:43;;;;;;;2.33;0.70;;;26.00;57.70;;;;;;5054694;28;20223;-74
2022/10/31 03:54:40;;;;;;;4.77;0.80;;;26.10;57.80;;;;;;5054416;28;20172;-73
2022/10/31 03:57:19;;;;;;;4.20;0.77;;;26.50;60.10;;;;;;5053326;28;20267;-75
2022/10/31 03:59:54;;;;;;;2.97;0.80;;;26.70;57.90;;;;;;5054268;28;20182;-77
2022/10/31 04:02:27;;;;;;;2.87;0.60;;;27.00;56.80;;;;;;5053915;28;20619;-75
2022/10/31 04:04:56;;;;;;;1.67;0.70;;;27.10;55.10;;;;;;5040768;28;20164;-73
2022/10/31 04:07:30;;;;;;;2.37;0.80;;;27.20;57.30;;;;;;5046228;28;20176;-73
2022/10/31 04:10:00;;;;;;;2.60;0.70;;;27.10;57.70;;;;;;5054043;28;20178;-72
2022/10/31 04:12:37;;;;;;;2.13;1.03;;;27.20;57.50;;;;;;5057412;28;20257;-76
2022/10/31 04:15:18;;;;;;;1.13;0.80;;;27.30;55.70;;;;;;5038077;28;20172;-76
2022/10/31 04:17:56;;;;;;;2.63;0.87;;;27.20;54.90;;;;;;5054488;28;20634;-78
2022/10/31 04:20:39;;;;;;;0.93;0.53;;;27.20;53.80;;;;;;5032782;28;20263;-78
2022/10/31 04:26:18;;;;;;;1.13;0.50;;;26.80;54.00;;;;;;5051262;28;20192;-74
2022/10/31 04:28:46;;;;;;;0.50;0.50;;;26.80;54.00;;;;;;5054645;28;20175;-76
2022/10/31 04:31:17;;;;;;;1.10;0.60;;;26.70;54.00;;;;;;5054228;28;20207;-78
2022/10/31 04:33:44;;;;;;;0.97;0.50;;;26.70;53.90;;;;;;5054333;28;20160;-71
2022/10/31 04:36:12;;;;;;;3.10;0.40;;;26.80;53.20;;;;;;5054135;28;20176;-71
2022/10/31 04:38:39;;;;;;;3.23;0.60;;;26.80;52.50;;;;;;5039630;28;20180;-71
2022/10/31 04:41:06;;;;;;;0.73;0.50;;;26.70;52.60;;;;;;5035540;28;20177;-69
2022/10/31 04:43:34;;;;;;;1.10;0.50;;;26.60;53.30;;;;;;5043962;28;20299;-70
2022/10/31 04:46:01;;;;;;;1.13;1.03;;;26.50;53.50;;;;;;5048841;28;20215;-69
2022/10/31 04:48:29;;;;;;;1.47;0.70;;;26.30;54.00;;;;;;5053350;28;20176;-70
2022/10/31 04:51:03;;;;;;;0.70;0.50;;;26.30;54.20;;;;;;5052294;28;20291;-69
2022/10/31 04:53:30;;;;;;;0.80;0.70;;;26.30;54.30;;;;;;5052274;28;20645;-73
2022/10/31 04:56:00;;;;;;;0.40;0.40;;;26.30;54.40;;;;;;5046059;28;20206;-70
2022/10/31 04:58:29;;;;;;;0.70;0.50;;;26.40;54.40;;;;;;5053268;28;20186;-69
2022/10/31 05:00:57;;;;;;;1.43;0.60;;;26.50;54.40;;;;;;5053205;28;20317;-71
2022/10/31 05:03:25;;;;;;;0.97;0.70;;;26.60;54.30;;;;;;5052924;28;20207;-71
2022/10/31 05:05:52;;;;;;;3.00;0.83;;;26.60;54.30;;;;;;5052604;28;20187;-72
2022/10/31 05:08:19;;;;;;;2.37;0.80;;;26.50;54.50;;;;;;5033186;28;20176;-71
2022/10/31 05:10:47;;;;;;;0.93;0.60;;;26.50;54.60;;;;;;5040027;28;20211;-71
2022/10/31 05:13:15;;;;;;;0.50;0.50;;;26.50;54.80;;;;;;5039008;28;20183;-70
2022/10/31 05:15:42;;;;;;;2.10;0.60;;;26.60;54.70;;;;;;5051690;28;20195;-71
2022/10/31 05:18:09;;;;;;;1.67;0.80;;;26.80;54.60;;;;;;5049654;28;20203;-69
2022/10/31 05:20:37;;;;;;;0.60;0.50;;;26.70;54.70;;;;;;5051212;28;20176;-72
2022/10/31 05:23:04;;;;;;;0.70;0.60;;;26.60;54.80;;;;;;5052845;28;20176;-72
2022/10/31 05:25:31;;;;;;;4.27;0.60;;;26.50;55.30;;;;;;5052805;28;20182;-71
2022/10/31 05:27:59;;;;;;;1.00;0.80;;;26.50;55.50;;;;;;5051414;28;20194;-72
2022/10/31 05:30:31;;;;;;;3.80;0.77;;;26.50;55.60;;;;;;5052419;28;20263;-72
2022/10/31 05:32:59;;;;;;;0.73;0.70;;;26.50;55.50;;;;;;5037258;28;20214;-71
2022/10/31 05:35:34;;;;;;;1.60;0.60;;;26.50;55.70;;;;;;5041043;28;20307;-71
2022/10/31 05:38:05;;;;;;;1.17;0.70;;;26.80;55.10;;;;;;5038699;28;20638;-71
2022/10/31 05:40:32;;;;;;;0.87;0.60;;;27.60;52.90;;;;;;5036926;28;20272;-70
2022/10/31 05:43:01;;;;;;;0.80;0.50;;;28.20;50.70;;;;;;5032324;28;20212;-72
2022/10/31 05:45:28;;;;;;;0.80;0.50;;;27.80;51.80;;;;;;5038272;28;20275;-71
2022/10/31 05:48:00;;;;;;;4.90;0.73;;;27.40;53.10;;;;;;5051287;28;20241;-72
2022/10/31 05:50:30;;;;;;;0.80;0.60;;;27.50;53.40;;;;;;5032409;28;20522;-70
2022/10/31 05:53:05;;;;;;;1.50;0.50;;;27.80;51.20;;;;;;5028618;28;20189;-70
2022/10/31 05:55:35;;;;;;;2.33;0.50;;;27.90;51.60;;;;;;5045056;28;20220;-71
2022/10/31 05:58:03;;;;;;;1.43;0.77;;;29.00;49.30;;;;;;5048711;28;20207;-73
2022/10/31 06:00:34;;;;;;;0.60;0.60;;;30.20;46.20;;;;;;5049867;28;20168;-71
2022/10/31 06:03:04;;;;;;;0.80;0.50;;;30.30;45.10;;;;;;5050981;28;20184;-72
2022/10/31 06:05:35;;;;;;;0.90;0.50;;;30.60;44.70;;;;;;5042358;28;20180;-75
2022/10/31 06:08:02;;;;;;;0.60;0.60;;;30.40;44.30;;;;;;5043263;28;20191;-72
2022/10/31 06:10:30;;;;;;;0.50;0.43;;;30.00;45.30;;;;;;5049937;28;20180;-71
2022/10/31 06:12:57;;;;;;;1.17;0.60;;;29.80;45.50;;;;;;5052350;28;20266;-70
2022/10/31 06:15:25;;;;;;;1.33;0.50;;;28.90;48.00;;;;;;5051292;28;20187;-73
2022/10/31 06:18:03;;;;;;;0.77;0.70;;;28.50;48.50;;;;;;5047909;28;20184;-73
2022/10/31 06:20:31;;;;;;;2.33;0.60;;;28.30;49.40;;;;;;5049845;28;20176;-72
2022/10/31 06:22:58;;;;;;;0.93;0.60;;;28.10;50.10;;;;;;5034867;28;20267;-80
2022/10/31 06:25:26;;;;;;;2.93;0.70;;;27.80;49.50;;;;;;5037222;28;20178;-73
2022/10/31 06:27:54;;;;;;;0.97;0.67;;;27.70;49.80;;;;;;5063609;28;20184;-71
2022/10/31 06:30:22;;;;;;;4.63;0.60;;;27.60;50.40;;;;;;5048631;28;20210;-77
2022/10/31 06:32:49;;;;;;;1.00;0.57;;;27.40;50.80;;;;;;5051438;28;20188;-73
2022/10/31 06:35:18;;;;;;;0.93;0.77;;;27.40;51.20;;;;;;5066859;28;20175;-72
2022/10/31 06:37:55;;;;;;;0.93;0.70;;;27.30;51.40;;;;;;5040849;28;20315;-72
2022/10/31 06:40:22;;;;;;;4.67;1.17;;;27.10;51.90;;;;;;5032034;28;20270;-71
2022/10/31 06:43:00;;;;;;;2.87;0.80;;;27.10;52.70;;;;;;5049933;28;20648;-71
2022/10/31 06:45:28;;;;;;;1.80;0.70;;;27.00;52.80;;;;;;5051395;28;20183;-68
2022/10/31 06:47:56;;;;;;;4.00;0.70;;;26.90;53.00;;;;;;5048404;28;20511;-70
2022/10/31 06:50:24;;;;;;;4.60;0.70;;;26.80;53.40;;;;;;5046490;28;20257;-69
2022/10/31 06:52:56;;;;;;;1.07;0.80;;;26.80;53.50;;;;;;5047526;28;20175;-71
2022/10/31 06:55:24;;;;;;;1.40;0.77;;;26.80;53.90;;;;;;5045739;28;20176;-72
2022/10/31 06:57:57;;;;;;;0.80;0.73;;;26.70;54.00;;;;;;5042617;28;20251;-72
2022/10/31 07:00:26;;;;;;;1.97;0.70;;;26.70;54.10;;;;;;5046299;28;20183;-73
2022/10/31 07:03:02;;;;;;;0.97;0.87;;;26.70;53.90;;;;;;5020901;28;20256;-73
2022/10/31 07:05:33;;;;;;;0.67;0.67;;;26.70;54.00;;;;;;5054948;28;20188;-74
2022/10/31 07:08:04;;;;;;;0.70;0.70;;;26.70;53.80;;;;;;5054744;28;20258;-72
2022/10/31 07:10:34;;;;;;;2.60;0.73;;;26.60;53.90;;;;;;5048776;28;20533;-74
2022/10/31 07:13:07;;;;;;;2.90;0.80;;;26.60;53.80;;;;;;5054542;28;20273;-71
2022/10/31 07:15:36;;;;;;;2.73;1.00;;;26.60;53.80;;;;;;5055039;28;20530;-72
2022/10/31 07:18:06;;;;;;;2.07;1.07;;;26.60;53.90;;;;;;5053870;28;20212;-75
2022/10/31 07:20:35;;;;;;;1.40;1.00;;;26.60;53.80;;;;;;5055012;28;20172;-69
2022/10/31 07:23:02;;;;;;;0.70;0.60;;;26.60;54.00;;;;;;5054031;28;20179;-72
2022/10/31 07:25:30;;;;;;;1.10;1.00;;;26.60;53.90;;;;;;5035001;28;20194;-69
2022/10/31 07:27:57;;;;;;;0.83;0.67;;;26.60;54.00;;;;;;5049015;28;20177;-72
2022/10/31 07:30:25;;;;;;;0.80;0.70;;;26.50;54.00;;;;;;5055176;28;20176;-71
2022/10/31 07:32:52;;;;;;;2.80;0.70;;;26.50;54.00;;;;;;5054904;28;20246;-76
2022/10/31 07:35:22;;;;;;;5.03;0.87;;;26.50;53.90;;;;;;5054484;28;20521;-74
2022/10/31 07:37:50;;;;;;;1.40;1.00;;;26.50;54.10;;;;;;5055028;28;20196;-71
2022/10/31 07:40:18;;;;;;;2.00;1.00;;;26.50;54.20;;;;;;5054336;28;20728;-73
2022/10/31 07:42:48;;;;;;;1.07;0.97;;;26.50;54.30;;;;;;5036915;28;20695;-76
2022/10/31 07:45:22;;;;;;;1.00;0.80;;;26.40;54.40;;;;;;5043994;28;20209;-75
2022/10/31 07:47:51;;;;;;;1.33;0.90;;;26.50;54.30;;;;;;5054714;28;20215;-70
2022/10/31 07:50:28;;;;;;;3.73;0.87;;;26.50;54.50;;;;;;5054497;28;20654;-71
2022/10/31 07:53:08;;;;;;;5.10;0.73;;;26.50;54.40;;;;;;5054836;28;20188;-70
2022/10/31 07:55:36;;;;;;;2.43;0.70;;;26.50;54.60;;;;;;5039206;28;20635;-69
2022/10/31 07:58:06;;;;;;;0.80;0.80;;;26.40;54.80;;;;;;5043052;28;20571;-72
2022/10/31 08:00:35;;;;;;;1.23;0.70;;;26.50;54.70;;;;;;5043637;28;20196;-73
2022/10/31 08:03:07;;;;;;;1.30;0.90;;;26.40;54.90;;;;;;5049364;28;20683;-74
2022/10/31 08:05:36;;;;;;;1.33;0.70;;;26.40;55.00;;;;;;5051235;28;20204;-72
2022/10/31 08:08:04;;;;;;;1.20;0.93;;;26.60;54.60;;;;;;5046034;28;20263;-72
2022/10/31 08:10:33;;;;;;;1.73;1.00;;;26.50;54.90;;;;;;5053505;28;20206;-73
2022/10/31 08:13:03;;;;;;;1.57;0.90;;;26.50;55.00;;;;;;5029736;28;20527;-70
2022/10/31 08:15:31;;;;;;;4.03;0.90;;;26.40;55.10;;;;;;5050082;28;20638;-71
2022/10/31 08:17:58;;;;;;;2.53;0.90;;;26.40;55.30;;;;;;5052569;28;20230;-69
2022/10/31 08:20:27;;;;;;;3.23;1.07;;;26.40;55.30;;;;;;5051487;28;20188;-73
2022/10/31 08:22:56;;;;;;;1.67;1.17;;;26.40;55.40;;;;;;5066561;28;20184;-70
2022/10/31 08:25:24;;;;;;;3.50;0.90;;;26.40;55.60;;;;;;5048296;28;20721;-73
2022/10/31 08:27:54;;;;;;;5.50;1.20;;;26.30;55.80;;;;;;5053531;28;20187;-70
2022/10/31 08:30:23;;;;;;;1.63;1.00;;;26.40;55.70;;;;;;5053876;28;20222;-69
2022/10/31 08:33:09;;;;;;;3.97;0.90;;;26.40;55.90;;;;;;5053779;28;20586;-70
2022/10/31 08:35:37;;;;;;;2.30;1.00;;;26.30;56.10;;;;;;5053263;28;20179;-69
2022/10/31 08:38:06;;;;;;;1.03;0.80;;;26.30;56.00;;;;;;5049557;28;20241;-69
2022/10/31 08:40:35;;;;;;;1.40;1.00;;;26.30;56.20;;;;;;5052472;28;20233;-70
2022/10/31 08:43:05;;;;;;;1.60;1.00;;;26.40;55.80;;;;;;5053731;28;20580;-70
2022/10/31 08:45:35;;;;;;;7.67;1.00;;;26.40;55.80;;;;;;5069072;28;20186;-70
2022/10/31 08:48:05;;;;;;;1.70;0.83;;;26.30;56.20;;;;;;5052886;28;20326;-68
2022/10/31 08:50:35;;;;;;;0.93;0.83;;;26.30;56.20;;;;;;5056285;28;20207;-72
2022/10/31 08:53:05;;;;;;;1.47;0.80;;;26.20;56.60;;;;;;5045126;28;20635;-70
2022/10/31 08:55:33;;;;;;;3.53;0.80;;;26.20;56.50;;;;;;5052567;28;20180;-69
2022/10/31 08:58:00;;;;;;;3.73;1.00;;;26.20;56.50;;;;;;5053433;28;20184;-70
2022/10/31 09:00:28;;;;;;;0.97;0.70;;;26.20;56.60;;;;;;5052328;28;20684;-72
2022/10/31 09:03:32;;;;;;;1.23;0.60;;;26.30;56.20;;;;;;5053475;28;20179;-76
2022/10/31 09:06:02;;;;;;;2.03;0.80;;;26.20;56.60;;;;;;5043914;28;20293;-71
2022/10/31 09:08:33;;;;;;;1.93;0.80;;;26.10;57.10;;;;;;5053852;28;20187;-71
2022/10/31 09:11:01;;;;;;;3.50;0.80;;;26.00;57.50;;;;;;5053367;28;20199;-71
2022/10/31 09:13:28;;;;;;;1.13;0.70;;;26.00;57.70;;;;;;5053457;28;20226;-69
2022/10/31 09:16:00;;;;;;;1.00;0.63;;;25.90;57.90;;;;;;5052953;28;20183;-69
2022/10/31 09:18:31;;;;;;;2.73;0.90;;;25.90;58.10;;;;;;5052963;28;20180;-68
2022/10/31 09:21:00;;;;;;;2.30;0.80;;;25.80;58.60;;;;;;5053465;28;20172;-71
2022/10/31 09:23:28;;;;;;;1.07;0.80;;;25.80;59.00;;;;;;5034991;28;20192;-69
2022/10/31 09:25:56;;;;;;;1.30;0.97;;;25.60;59.40;;;;;;5034621;28;20180;-68
2022/10/31 09:28:24;;;;;;;1.57;0.80;;;25.50;61.20;;;;;;5052887;28;20199;-70
2022/10/31 09:30:53;;;;;;;1.80;0.67;;;25.20;63.50;;;;;;5053120;28;20211;-69
2022/10/31 09:33:21;;;;;;;1.73;0.70;;;24.90;64.60;;;;;;5052167;28;20249;-71
2022/10/31 09:35:49;;;;;;;2.07;0.87;;;24.80;64.40;;;;;;5053532;28;20218;-71
2022/10/31 09:38:23;;;;;;;2.57;0.87;;;24.70;65.90;;;;;;5052960;28;20184;-72
2022/10/31 09:41:02;;;;;;;2.97;0.80;;;24.50;67.10;;;;;;5039146;28;20229;-71
2022/10/31 09:43:47;;;;;;;1.17;0.80;;;24.50;65.90;;;;;;5052508;28;20223;-69
2022/10/31 09:46:53;;;;;;;1.27;0.77;;;24.50;66.50;;;;;;5052943;28;20184;-72
2022/10/31 09:49:37;;;;;;;0.80;0.80;;;24.40;66.00;;;;;;5044138;28;20210;-71
2022/10/31 09:52:27;;;;;;;1.03;0.80;;;24.50;65.50;;;;;;5052806;28;20688;-68
2022/10/31 09:55:19;;;;;;;1.50;0.80;;;24.40;66.00;;;;;;5052827;28;20176;-68
2022/10/31 09:57:48;;;;;;;1.17;0.77;;;24.40;66.00;;;;;;5024783;28;20632;-69
2022/10/31 10:00:19;;;;;;;1.37;0.80;;;24.30;66.90;;;;;;5052956;28;20187;-68
2022/10/31 10:03:07;;;;;;;2.20;0.77;;;24.30;67.90;;;;;;5052523;28;20179;-69
2022/10/31 10:06:06;;;;;;;0.40;0.40;;;24.10;67.90;;;;;;5052766;28;20237;-68
2022/10/31 10:08:35;;;;;;;1.17;0.60;;;24.00;68.00;;;;;;5034622;28;20184;-68
2022/10/31 10:11:25;;;;;;;1.00;0.60;;;24.10;67.60;;;;;;5051913;28;20662;-70
2022/10/31 10:14:04;;;;;;;0.57;0.57;;;24.00;67.60;;;;;;5040998;28;20585;-68
2022/10/31 10:17:09;;;;;;;2.27;0.60;;;24.10;67.40;;;;;;5038576;28;20186;-69
2022/10/31 10:20:23;;;;;;;2.90;0.70;;;24.20;67.40;;;;;;5052364;28;20187;-72
2022/10/31 10:23:29;;;;;;;0.70;0.60;;;24.10;68.00;;;;;;4974627;28;20194;-71
2022/10/31 10:26:15;;;;;;;0.50;0.50;;;24.00;67.90;;;;;;4970983;28;20534;-70
2022/10/31 10:28:46;;;;;;;1.73;0.70;;;24.00;68.60;;;;;;5017439;28;20593;-69
2022/10/31 10:31:22;;;;;;;1.83;0.53;;;23.90;68.80;;;;;;5052249;28;20235;-72
2022/10/31 10:34:30;;;;;;;3.63;0.80;;;24.00;68.50;;;;;;5051988;28;20600;-70
2022/10/31 10:37:00;;;;;;;1.13;0.60;;;24.00;68.70;;;;;;5044145;28;20678;-71
2022/10/31 10:39:50;;;;;;;1.00;0.70;;;23.90;68.50;;;;;;5055518;28;20654;-75
2022/10/31 10:48:37;;;;;;;1.20;0.50;;;23.70;70.50;;;;;;5042887;28;20265;-72
2022/10/31 10:51:06;;;;;;;2.30;0.77;;;23.60;70.90;;;;;;5054621;28;20210;-72
2022/10/31 10:54:00;;;;;;;0.70;0.70;;;23.50;72.10;;;;;;5056163;28;20710;-73
2022/10/31 10:56:50;;;;;;;1.00;0.80;;;23.30;72.60;;;;;;5042360;28;20576;-80
2022/10/31 10:59:21;;;;;;;0.80;0.80;;;23.30;73.50;;;;;;5052376;28;20222;-77
2022/10/31 11:01:51;;;;;;;1.07;0.73;;;23.20;73.60;;;;;;5050185;28;20192;-80
2022/10/31 11:04:34;;;;;;;0.70;0.70;;;23.10;73.80;;;;;;5056299;28;20164;-74
2022/10/31 11:07:07;;;;;;;2.03;0.70;;;23.10;74.40;;;;;;5055789;28;20168;-74
2022/10/31 11:09:38;;;;;;;0.83;0.60;;;23.10;74.00;;;;;;5055340;28;20597;-71
2022/10/31 11:12:20;;;;;;;1.10;0.80;;;23.10;73.40;;;;;;5055163;28;20684;-77
2022/10/31 11:14:59;;;;;;;0.67;0.67;;;23.10;73.40;;;;;;5055897;28;20184;-80
2022/10/31 11:17:36;;;;;;;1.50;0.73;;;23.20;73.20;;;;;;5053771;28;20179;-77
2022/10/31 11:20:14;;;;;;;2.00;0.70;;;23.30;73.10;;;;;;5062224;28;20179;-72
2022/10/31 11:22:44;;;;;;;1.37;0.60;;;23.30;72.90;;;;;;5063933;28;20233;-77
2022/10/31 11:25:25;;;;;;;2.07;0.70;;;23.30;72.70;;;;;;5058731;28;20239;-81
2022/10/31 11:28:10;;;;;;;0.60;0.60;;;23.30;73.40;;;;;;5054933;28;20531;-76
2022/10/31 11:30:44;;;;;;;1.23;0.70;;;23.30;72.90;;;;;;5064097;28;20663;-80
2022/10/31 11:33:46;;;;;;;0.67;0.60;;;23.30;72.20;;;;;;5065680;28;20191;-78
2022/10/31 11:36:20;;;;;;;0.93;0.80;;;23.50;71.50;;;;;;5031063;28;20680;-75
2022/10/31 11:38:48;;;;;;;1.90;1.10;;;23.40;71.90;;;;;;5062475;28;20244;-75
2022/10/31 11:41:26;;;;;;;0.70;0.60;;;23.40;71.70;;;;;;5059153;28;20211;-71
2022/10/31 11:44:02;;;;;;;0.77;0.77;;;23.40;71.90;;;;;;5053006;28;20227;-70
2022/10/31 11:46:52;;;;;;;1.70;0.80;;;23.40;72.10;;;;;;5064261;28;20210;-73
2022/10/31 11:49:45;;;;;;;1.23;0.70;;;23.30;72.90;;;;;;5059598;28;20216;-70
2022/10/31 11:52:20;;;;;;;0.83;0.77;;;23.20;73.20;;;;;;5064838;28;20212;-69
2022/10/31 11:55:02;;;;;;;1.00;0.70;;;23.20;73.50;;;;;;5063473;28;20642;-71
2022/10/31 11:57:43;;;;;;;1.33;0.90;;;23.10;73.80;;;;;;5040083;28;20212;-69
2022/10/31 12:00:29;;;;;;;2.37;0.80;;;23.00;74.50;;;;;;5059129;28;20229;-69
2022/10/31 12:03:14;;;;;;;1.03;0.77;;;22.90;75.10;;;;;;5050675;28;20183;-69
2022/10/31 12:05:44;;;;;;;1.20;1.07;;;22.80;75.90;;;;;;5057778;28;20184;-70
2022/10/31 12:08:13;;;;;;;2.67;0.90;;;22.80;76.40;;;;;;5063652;28;20273;-71
2022/10/31 12:11:07;;;;;;;1.73;0.87;;;22.70;77.50;;;;;;5064276;28;20185;-71
2022/10/31 12:13:56;;;;;;;1.40;0.93;;;22.50;77.60;;;;;;5065974;28;20195;-74
2022/10/31 12:17:00;;;;;;;2.53;1.10;;;22.50;77.80;;;;;;5061680;28;20180;-71
2022/10/31 12:19:41;;;;;;;2.03;1.00;;;22.40;78.20;;;;;;5049057;28;20187;-72
2022/10/31 12:22:20;;;;;;;3.37;1.20;;;22.40;79.00;;;;;;5065121;28;20186;-72
2022/10/31 12:25:05;;;;;;;4.37;1.20;;;22.30;80.10;;;;;;5041429;28;20175;-72
2022/10/31 12:28:12;;;;;;;2.10;1.37;;;22.30;79.90;;;;;;5060236;28;20179;-73
2022/10/31 12:31:17;;;;;;;4.50;1.20;;;22.30;80.60;;;;;;5055190;28;20313;-71
2022/10/31 12:33:52;;;;;;;1.47;1.10;;;22.10;81.60;;;;;;5050281;28;20188;-71
2022/10/31 12:37:14;;;;;;;2.00;1.20;;;22.00;82.40;;;;;;5053053;28;20302;-71
2022/10/31 12:39:50;;;;;;;1.53;1.30;;;21.90;83.50;;;;;;5055147;28;20646;-73
2022/10/31 12:42:28;;;;;;;2.60;1.50;;;21.90;82.40;;;;;;5053712;28;20184;-71
2022/10/31 12:45:13;;;;;;;2.93;1.20;;;21.90;82.50;;;;;;5054019;28;20284;-70
2022/10/31 12:47:55;;;;;;;1.80;1.27;;;21.90;83.00;;;;;;5036063;28;20222;-73
2022/10/31 12:50:28;;;;;;;1.77;1.30;;;21.80;83.20;;;;;;5053934;28;20245;-72
2022/10/31 12:53:05;;;;;;;1.30;1.20;;;21.90;82.50;;;;;;5053479;28;20213;-71
2022/10/31 12:56:05;;;;;;;2.63;1.20;;;21.90;82.50;;;;;;5039839;28;20172;-71
2022/10/31 12:59:00;;;;;;;2.60;1.40;;;21.90;82.30;;;;;;5014140;28;20199;-74
2022/10/31 13:01:53;;;;;;;4.50;1.70;;;22.00;82.20;;;;;;5067586;28;20215;-72
2022/10/31 13:04:44;;;;;;;2.10;1.40;;;22.00;81.60;;;;;;5052329;28;20653;-71
2022/10/31 13:07:28;;;;;;;2.20;1.40;;;22.00;81.40;;;;;;5053683;28;20180;-74
2022/10/31 13:10:03;;;;;;;3.20;1.23;;;22.10;81.10;;;;;;5054120;28;20243;-72
2022/10/31 13:12:34;;;;;;;1.23;1.13;;;22.00;81.50;;;;;;5062277;28;20677;-71
2022/10/31 13:15:17;;;;;;;2.73;1.30;;;22.10;80.80;;;;;;5048151;28;20172;-73
2022/10/31 13:17:49;;;;;;;2.60;1.53;;;22.10;80.70;;;;;;5053251;28;20263;-71
2022/10/31 13:20:38;;;;;;;2.97;1.30;;;22.20;80.40;;;;;;5052942;28;20172;-72
2022/10/31 13:23:17;;;;;;;1.43;1.30;;;22.20;80.60;;;;;;5053585;28;20708;-72
2022/10/31 13:25:51;;;;;;;2.70;1.20;;;22.10;80.80;;;;;;5053346;28;20180;-74
2022/10/31 13:28:28;;;;;;;1.63;1.33;;;22.20;80.50;;;;;;5053132;28;20230;-73
2022/10/31 13:30:55;;;;;;;2.93;1.33;;;22.30;80.10;;;;;;5053085;28;20746;-70
2022/10/31 13:33:43;;;;;;;1.93;1.27;;;22.20;80.00;;;;;;5052870;28;20194;-71